sensor_id;sensor_type;location;lat;lon;timestamp;pressure;altitude;pressure_sealevel;temperature;humidity
64158;BME280;50449;51.528;5.076;2024-03-08T00:01:40;101653.94;;;8.45;58.24
64158;BME280;50449;51.528;5.076;2024-03-08T00:04:06;101656.81;;;8.43;58.22
64158;BME280;50449;51.528;5.076;2024-03-08T00:06:32;101651.66;;;8.42;58.25
64158;BME280;50449;51.528;5.076;2024-03-08T00:08:57;101649.78;;;8.42;58.47
64158;BME280;50449;51.528;5.076;2024-03-08T00:11:23;101644.59;;;8.41;58.13
64158;BME280;50449;51.528;5.076;2024-03-08T00:13:52;101644.81;;;8.39;58.11
64158;BME280;50449;51.528;5.076;2024-03-08T00:16:17;101645.81;;;8.38;58.62
64158;BME280;50449;51.528;5.076;2024-03-08T00:18:45;101649.53;;;8.37;58.29
64158;BME280;50449;51.528;5.076;2024-03-08T00:21:10;101641.03;;;8.34;58.24
64158;BME280;50449;51.528;5.076;2024-03-08T00:23:37;101644.16;;;8.31;58.26
64158;BME280;50449;51.528;5.076;2024-03-08T00:26:03;101641.88;;;8.28;58.20
64158;BME280;50449;51.528;5.076;2024-03-08T00:28:29;101644.97;;;8.24;58.09
64158;BME280;50449;51.528;5.076;2024-03-08T00:30:56;101636.69;;;8.26;58.69
64158;BME280;50449;51.528;5.076;2024-03-08T00:33:21;101632.34;;;8.25;58.73
64158;BME280;50449;51.528;5.076;2024-03-08T00:35:47;101638.56;;;8.26;59.07
64158;BME280;50449;51.528;5.076;2024-03-08T00:38:13;101624.28;;;8.25;59.12
64158;BME280;50449;51.528;5.076;2024-03-08T00:40:38;101624.91;;;8.27;59.18
64158;BME280;50449;51.528;5.076;2024-03-08T00:43:05;101623.84;;;8.28;59.63
64158;BME280;50449;51.528;5.076;2024-03-08T00:45:31;101629.22;;;8.28;59.57
64158;BME280;50449;51.528;5.076;2024-03-08T00:47:56;101628.41;;;8.28;58.97
64158;BME280;50449;51.528;5.076;2024-03-08T00:50:22;101622.41;;;8.26;59.35
64158;BME280;50449;51.528;5.076;2024-03-08T00:52:47;101622.41;;;8.26;59.54
64158;BME280;50449;51.528;5.076;2024-03-08T00:55:13;101619.09;;;8.23;59.75
64158;BME280;50449;51.528;5.076;2024-03-08T00:57:38;101619.72;;;8.26;59.78
64158;BME280;50449;51.528;5.076;2024-03-08T01:00:06;101613.31;;;8.27;59.69
64158;BME280;50449;51.528;5.076;2024-03-08T01:02:35;101611.84;;;8.24;59.87
64158;BME280;50449;51.528;5.076;2024-03-08T01:05:01;101617.44;;;8.22;59.38
64158;BME280;50449;51.528;5.076;2024-03-08T01:07:27;101605.22;;;8.20;59.45
64158;BME280;50449;51.528;5.076;2024-03-08T01:09:52;101613.47;;;8.18;59.58
64158;BME280;50449;51.528;5.076;2024-03-08T01:12:18;101611.66;;;8.19;59.36
64158;BME280;50449;51.528;5.076;2024-03-08T01:14:43;101609.16;;;8.17;59.63
64158;BME280;50449;51.528;5.076;2024-03-08T01:17:09;101594.88;;;8.17;59.85
64158;BME280;50449;51.528;5.076;2024-03-08T01:19:35;101602.09;;;8.16;60.03
64158;BME280;50449;51.528;5.076;2024-03-08T01:22:00;101603.78;;;8.17;60.07
64158;BME280;50449;51.528;5.076;2024-03-08T01:24:26;101599.41;;;8.16;59.84
64158;BME280;50449;51.528;5.076;2024-03-08T01:26:51;101586.16;;;8.15;60.22
64158;BME280;50449;51.528;5.076;2024-03-08T01:29:17;101582.66;;;8.14;59.98
64158;BME280;50449;51.528;5.076;2024-03-08T01:31:42;101578.91;;;8.15;60.13
64158;BME280;50449;51.528;5.076;2024-03-08T01:34:08;101585.53;;;8.13;60.32
64158;BME280;50449;51.528;5.076;2024-03-08T01:36:33;101584.09;;;8.10;59.90
64158;BME280;50449;51.528;5.076;2024-03-08T01:38:59;101576.00;;;8.10;60.53
64158;BME280;50449;51.528;5.076;2024-03-08T01:41:24;101580.34;;;8.11;59.98
64158;BME280;50449;51.528;5.076;2024-03-08T01:43:49;101582.44;;;8.09;59.93
64158;BME280;50449;51.528;5.076;2024-03-08T01:46:18;101574.38;;;8.09;60.20
64158;BME280;50449;51.528;5.076;2024-03-08T01:48:44;101570.63;;;8.10;60.33
64158;BME280;50449;51.528;5.076;2024-03-08T01:51:10;101570.81;;;8.09;60.32
64158;BME280;50449;51.528;5.076;2024-03-08T01:53:37;101568.56;;;8.06;60.08
64158;BME280;50449;51.528;5.076;2024-03-08T01:56:02;101559.03;;;8.03;59.96
64158;BME280;50449;51.528;5.076;2024-03-08T01:58:29;101560.72;;;8.04;60.16
64158;BME280;50449;51.528;5.076;2024-03-08T02:00:56;101553.66;;;8.03;60.12
64158;BME280;50449;51.528;5.076;2024-03-08T02:03:23;101549.31;;;8.02;60.00
64158;BME280;50449;51.528;5.076;2024-03-08T02:05:49;101548.69;;;8.00;60.39
64158;BME280;50449;51.528;5.076;2024-03-08T02:08:15;101550.75;;;7.98;59.83
64158;BME280;50449;51.528;5.076;2024-03-08T02:10:41;101546.84;;;7.94;59.89
64158;BME280;50449;51.528;5.076;2024-03-08T02:13:07;101547.84;;;7.93;60.38
64158;BME280;50449;51.528;5.076;2024-03-08T02:16:00;101534.63;;;7.91;60.25
64158;BME280;50449;51.528;5.076;2024-03-08T02:18:27;101531.31;;;7.89;60.04
64158;BME280;50449;51.528;5.076;2024-03-08T02:20:58;101532.53;;;7.87;60.00
64158;BME280;50449;51.528;5.076;2024-03-08T02:23:24;101538.31;;;7.84;60.18
64158;BME280;50449;51.528;5.076;2024-03-08T02:25:50;101529.63;;;7.82;60.18
64158;BME280;50449;51.528;5.076;2024-03-08T02:28:16;101524.47;;;7.80;60.06
64158;BME280;50449;51.528;5.076;2024-03-08T02:30:48;101520.31;;;7.77;60.06
64158;BME280;50449;51.528;5.076;2024-03-08T02:33:18;101515.53;;;7.73;60.18
64158;BME280;50449;51.528;5.076;2024-03-08T02:35:47;101516.59;;;7.72;60.16
64158;BME280;50449;51.528;5.076;2024-03-08T02:38:19;101516.16;;;7.68;60.00
64158;BME280;50449;51.528;5.076;2024-03-08T02:40:46;101503.13;;;7.65;59.86
64158;BME280;50449;51.528;5.076;2024-03-08T02:43:13;101500.03;;;7.62;59.64
64158;BME280;50449;51.528;5.076;2024-03-08T02:45:40;101506.66;;;7.59;59.53
64158;BME280;50449;51.528;5.076;2024-03-08T02:48:07;101499.81;;;7.56;59.70
64158;BME280;50449;51.528;5.076;2024-03-08T02:50:33;101497.53;;;7.53;59.60
64158;BME280;50449;51.528;5.076;2024-03-08T02:53:00;101490.69;;;7.51;60.04
64158;BME280;50449;51.528;5.076;2024-03-08T02:55:26;101494.00;;;7.53;59.90
64158;BME280;50449;51.528;5.076;2024-03-08T02:57:52;101484.28;;;7.52;59.92
64158;BME280;50449;51.528;5.076;2024-03-08T03:00:20;101482.63;;;7.51;59.77
64158;BME280;50449;51.528;5.076;2024-03-08T03:02:46;101476.00;;;7.47;59.39
64158;BME280;50449;51.528;5.076;2024-03-08T03:05:12;101473.75;;;7.44;59.94
64158;BME280;50449;51.528;5.076;2024-03-08T03:07:38;101472.88;;;7.43;59.67
64158;BME280;50449;51.528;5.076;2024-03-08T03:10:04;101467.72;;;7.42;59.75
64158;BME280;50449;51.528;5.076;2024-03-08T03:12:31;101469.78;;;7.40;59.15
64158;BME280;50449;51.528;5.076;2024-03-08T03:14:57;101468.16;;;7.39;59.35
64158;BME280;50449;51.528;5.076;2024-03-08T03:17:23;101464.00;;;7.36;59.16
64158;BME280;50449;51.528;5.076;2024-03-08T03:19:49;101458.00;;;7.34;59.13
64158;BME280;50449;51.528;5.076;2024-03-08T03:22:15;101464.63;;;7.31;59.67
64158;BME280;50449;51.528;5.076;2024-03-08T03:24:41;101461.09;;;7.31;59.79
64158;BME280;50449;51.528;5.076;2024-03-08T03:27:07;101465.63;;;7.30;60.00
64158;BME280;50449;51.528;5.076;2024-03-08T03:29:43;101450.13;;;7.32;60.36
64158;BME280;50449;51.528;5.076;2024-03-08T03:32:12;101457.19;;;7.33;60.66
64158;BME280;50449;51.528;5.076;2024-03-08T03:34:38;101458.81;;;7.34;60.09
64158;BME280;50449;51.528;5.076;2024-03-08T03:37:04;101456.13;;;7.34;60.23
64158;BME280;50449;51.528;5.076;2024-03-08T03:39:30;101460.69;;;7.34;60.52
64158;BME280;50449;51.528;5.076;2024-03-08T03:42:14;101451.59;;;7.35;60.95
64158;BME280;50449;51.528;5.076;2024-03-08T03:44:40;101448.06;;;7.34;60.60
64158;BME280;50449;51.528;5.076;2024-03-08T03:47:05;101452.63;;;7.34;60.49
64158;BME280;50449;51.528;5.076;2024-03-08T03:49:32;101443.75;;;7.33;60.43
64158;BME280;50449;51.528;5.076;2024-03-08T03:51:58;101438.56;;;7.32;60.28
64158;BME280;50449;51.528;5.076;2024-03-08T03:54:24;101441.25;;;7.32;60.28
64158;BME280;50449;51.528;5.076;2024-03-08T03:56:49;101440.44;;;7.31;60.68
64158;BME280;50449;51.528;5.076;2024-03-08T03:59:18;101439.59;;;7.31;60.47
64158;BME280;50449;51.528;5.076;2024-03-08T04:01:44;101442.06;;;7.32;60.75
64158;BME280;50449;51.528;5.076;2024-03-08T04:04:09;101438.75;;;7.30;60.88
64158;BME280;50449;51.528;5.076;2024-03-08T04:06:35;101440.63;;;7.30;60.89
64158;BME280;50449;51.528;5.076;2024-03-08T04:09:00;101432.16;;;7.26;60.98
64158;BME280;50449;51.528;5.076;2024-03-08T04:11:25;101430.47;;;7.25;61.17
64158;BME280;50449;51.528;5.076;2024-03-08T04:13:51;101432.34;;;7.25;61.08
64158;BME280;50449;51.528;5.076;2024-03-08T04:16:17;101424.50;;;7.23;60.70
64158;BME280;50449;51.528;5.076;2024-03-08T04:18:44;101425.94;;;7.19;60.54
64158;BME280;50449;51.528;5.076;2024-03-08T04:21:09;101427.78;;;7.19;60.49
64158;BME280;50449;51.528;5.076;2024-03-08T04:23:35;101425.09;;;7.19;60.74
64158;BME280;50449;51.528;5.076;2024-03-08T04:26:04;101421.56;;;7.18;60.82
64158;BME280;50449;51.528;5.076;2024-03-08T04:28:30;101410.81;;;7.18;61.09
64158;BME280;50449;51.528;5.076;2024-03-08T04:30:56;101404.44;;;7.19;61.22
64158;BME280;50449;51.528;5.076;2024-03-08T04:33:22;101406.06;;;7.20;60.72
64158;BME280;50449;51.528;5.076;2024-03-08T04:35:49;101405.44;;;7.18;61.35
64158;BME280;50449;51.528;5.076;2024-03-08T04:38:14;101406.50;;;7.17;60.93
64158;BME280;50449;51.528;5.076;2024-03-08T04:40:41;101405.84;;;7.15;60.89
64158;BME280;50449;51.528;5.076;2024-03-08T04:43:06;101407.53;;;7.16;61.01
64158;BME280;50449;51.528;5.076;2024-03-08T04:45:33;101407.91;;;7.13;61.14
64158;BME280;50449;51.528;5.076;2024-03-08T04:47:59;101401.72;;;7.12;60.96
64158;BME280;50449;51.528;5.076;2024-03-08T04:50:24;101394.69;;;7.11;61.05
64158;BME280;50449;51.528;5.076;2024-03-08T04:52:50;101394.91;;;7.10;61.04
64158;BME280;50449;51.528;5.076;2024-03-08T04:55:15;101387.06;;;7.08;61.10
64158;BME280;50449;51.528;5.076;2024-03-08T04:57:41;101387.06;;;7.08;61.09
64158;BME280;50449;51.528;5.076;2024-03-08T05:00:10;101397.19;;;7.06;60.87
64158;BME280;50449;51.528;5.076;2024-03-08T05:02:40;101387.66;;;7.04;61.17
64158;BME280;50449;51.528;5.076;2024-03-08T05:05:06;101383.31;;;7.03;61.18
64158;BME280;50449;51.528;5.076;2024-03-08T05:07:32;101385.16;;;7.02;61.23
64158;BME280;50449;51.528;5.076;2024-03-08T05:10:00;101376.09;;;7.03;61.31
64158;BME280;50449;51.528;5.076;2024-03-08T05:12:27;101378.97;;;7.02;60.94
64158;BME280;50449;51.528;5.076;2024-03-08T05:14:53;101376.47;;;7.00;60.85
64158;BME280;50449;51.528;5.076;2024-03-08T05:17:19;101380.41;;;6.98;61.18
64158;BME280;50449;51.528;5.076;2024-03-08T05:19:45;101378.13;;;6.94;60.96
64158;BME280;50449;51.528;5.076;2024-03-08T05:22:10;101372.13;;;6.92;61.46
64158;BME280;50449;51.528;5.076;2024-03-08T05:24:35;101372.97;;;6.93;61.54
64158;BME280;50449;51.528;5.076;2024-03-08T05:27:01;101375.66;;;6.93;60.97
64158;BME280;50449;51.528;5.076;2024-03-08T05:29:29;101367.78;;;6.91;61.35
64158;BME280;50449;51.528;5.076;2024-03-08T05:31:55;101372.13;;;6.92;61.52
64158;BME280;50449;51.528;5.076;2024-03-08T05:34:22;101372.53;;;6.89;61.14
64158;BME280;50449;51.528;5.076;2024-03-08T05:36:48;101366.75;;;6.86;60.94
64158;BME280;50449;51.528;5.076;2024-03-08T05:39:16;101372.31;;;6.84;61.49
64158;BME280;50449;51.528;5.076;2024-03-08T05:41:43;101365.31;;;6.83;61.29
64158;BME280;50449;51.528;5.076;2024-03-08T05:44:09;101366.94;;;6.84;61.79
64158;BME280;50449;51.528;5.076;2024-03-08T05:46:35;101365.31;;;6.83;61.21
64158;BME280;50449;51.528;5.076;2024-03-08T05:49:02;101350.44;;;6.81;61.29
64158;BME280;50449;51.528;5.076;2024-03-08T05:51:34;101358.69;;;6.79;61.15
64158;BME280;50449;51.528;5.076;2024-03-08T05:54:03;101352.91;;;6.76;61.09
64158;BME280;50449;51.528;5.076;2024-03-08T05:56:31;101347.31;;;6.77;61.41
64158;BME280;50449;51.528;5.076;2024-03-08T05:58:57;101357.22;;;6.77;60.81
64158;BME280;50449;51.528;5.076;2024-03-08T06:01:24;101342.75;;;6.71;60.79
64158;BME280;50449;51.528;5.076;2024-03-08T06:03:49;101345.63;;;6.69;60.88
64158;BME280;50449;51.528;5.076;2024-03-08T06:06:15;101347.91;;;6.66;60.87
64158;BME280;50449;51.528;5.076;2024-03-08T06:08:41;101349.78;;;6.65;61.11
64158;BME280;50449;51.528;5.076;2024-03-08T06:11:08;101346.22;;;6.65;61.20
64158;BME280;50449;51.528;5.076;2024-03-08T06:13:34;101347.09;;;6.65;61.20
64158;BME280;50449;51.528;5.076;2024-03-08T06:16:00;101340.66;;;6.66;61.30
64158;BME280;50449;51.528;5.076;2024-03-08T06:18:29;101336.13;;;6.67;61.13
64158;BME280;50449;51.528;5.076;2024-03-08T06:20:54;101339.03;;;6.65;61.20
64158;BME280;50449;51.528;5.076;2024-03-08T06:23:20;101322.06;;;6.65;61.33
64158;BME280;50449;51.528;5.076;2024-03-08T06:25:46;101332.00;;;6.64;61.21
64158;BME280;50449;51.528;5.076;2024-03-08T06:28:12;101329.31;;;6.64;61.63
64158;BME280;50449;51.528;5.076;2024-03-08T06:30:39;101334.88;;;6.63;61.30
64158;BME280;50449;51.528;5.076;2024-03-08T06:33:05;101328.66;;;6.62;61.22
64158;BME280;50449;51.528;5.076;2024-03-08T06:35:30;101327.22;;;6.60;61.35
64158;BME280;50449;51.528;5.076;2024-03-08T06:37:58;101327.22;;;6.60;61.67
64158;BME280;50449;51.528;5.076;2024-03-08T06:40:23;101326.41;;;6.59;61.16
64158;BME280;50449;51.528;5.076;2024-03-08T06:42:49;101324.13;;;6.56;61.07
64158;BME280;50449;51.528;5.076;2024-03-08T06:45:14;101321.63;;;6.55;61.11
64158;BME280;50449;51.528;5.076;2024-03-08T06:47:44;101317.50;;;6.52;61.11
64158;BME280;50449;51.528;5.076;2024-03-08T06:50:11;101312.13;;;6.52;61.24
64158;BME280;50449;51.528;5.076;2024-03-08T06:52:36;101325.53;;;6.52;61.47
64158;BME280;50449;51.528;5.076;2024-03-08T06:55:02;101311.31;;;6.52;60.99
64158;BME280;50449;51.528;5.076;2024-03-08T06:57:30;101317.72;;;6.50;61.08
64158;BME280;50449;51.528;5.076;2024-03-08T06:59:56;101316.03;;;6.49;61.39
64158;BME280;50449;51.528;5.076;2024-03-08T07:02:23;101312.53;;;6.49;61.04
64158;BME280;50449;51.528;5.076;2024-03-08T07:04:50;101309.44;;;6.45;61.15
64158;BME280;50449;51.528;5.076;2024-03-08T07:07:16;101315.00;;;6.44;61.45
64158;BME280;50449;51.528;5.076;2024-03-08T07:09:45;101320.38;;;6.44;61.11
64158;BME280;50449;51.528;5.076;2024-03-08T07:12:10;101310.84;;;6.41;61.19
64158;BME280;50449;51.528;5.076;2024-03-08T07:14:38;101308.59;;;6.38;60.98
64158;BME280;50449;51.528;5.076;2024-03-08T07:17:07;101304.44;;;6.36;61.29
64158;BME280;50449;51.528;5.076;2024-03-08T07:19:34;101308.34;;;6.33;61.12
64158;BME280;50449;51.528;5.076;2024-03-08T07:22:00;101307.72;;;6.31;60.96
64158;BME280;50449;51.528;5.076;2024-03-08T07:24:25;101298.22;;;6.28;61.65
64158;BME280;50449;51.528;5.076;2024-03-08T07:27:13;101296.59;;;6.27;60.92
64158;BME280;50449;51.528;5.076;2024-03-08T07:29:39;101295.72;;;6.27;61.13
64158;BME280;50449;51.528;5.076;2024-03-08T07:32:04;101300.28;;;6.26;60.87
64158;BME280;50449;51.528;5.076;2024-03-08T07:34:46;101292.63;;;6.23;61.02
64158;BME280;50449;51.528;5.076;2024-03-08T07:37:13;101295.50;;;6.22;60.71
64158;BME280;50449;51.528;5.076;2024-03-08T07:39:38;101289.31;;;6.21;60.94
64158;BME280;50449;51.528;5.076;2024-03-08T07:42:05;101287.69;;;6.20;61.25
64158;BME280;50449;51.528;5.076;2024-03-08T07:44:31;101283.31;;;6.19;60.95
64158;BME280;50449;51.528;5.076;2024-03-08T07:46:58;101282.50;;;6.19;60.75
64158;BME280;50449;51.528;5.076;2024-03-08T07:49:24;101271.97;;;6.17;61.03
64158;BME280;50449;51.528;5.076;2024-03-08T07:51:49;101278.38;;;6.16;60.89
64158;BME280;50449;51.528;5.076;2024-03-08T07:54:15;101268.88;;;6.14;60.77
64158;BME280;50449;51.528;5.076;2024-03-08T07:56:40;101276.28;;;6.12;61.23
64158;BME280;50449;51.528;5.076;2024-03-08T07:59:06;101270.28;;;6.10;60.97
64158;BME280;50449;51.528;5.076;2024-03-08T08:01:31;101266.78;;;6.09;61.56
64158;BME280;50449;51.528;5.076;2024-03-08T08:03:58;101270.28;;;6.10;60.97
64158;BME280;50449;51.528;5.076;2024-03-08T08:06:24;101266.78;;;6.09;60.85
64158;BME280;50449;51.528;5.076;2024-03-08T08:08:50;101269.47;;;6.09;61.87
64158;BME280;50449;51.528;5.076;2024-03-08T08:11:16;101259.56;;;6.10;61.42
64158;BME280;50449;51.528;5.076;2024-03-08T08:13:41;101258.53;;;6.11;61.53
64158;BME280;50449;51.528;5.076;2024-03-08T08:16:09;101249.44;;;6.12;61.18
64158;BME280;50449;51.528;5.076;2024-03-08T08:18:34;101248.63;;;6.11;60.93
64158;BME280;50449;51.528;5.076;2024-03-08T08:21:04;101246.13;;;6.10;60.67
64158;BME280;50449;51.528;5.076;2024-03-08T08:23:32;101244.50;;;6.09;60.47
64158;BME280;50449;51.528;5.076;2024-03-08T08:25:57;101244.69;;;6.07;60.25
64158;BME280;50449;51.528;5.076;2024-03-08T08:28:23;101234.19;;;6.05;59.80
64158;BME280;50449;51.528;5.076;2024-03-08T08:30:49;101229.22;;;6.02;59.86
64158;BME280;50449;51.528;5.076;2024-03-08T08:33:15;101230.03;;;6.03;59.75
64158;BME280;50449;51.528;5.076;2024-03-08T08:35:41;101229.81;;;6.04;60.26
64158;BME280;50449;51.528;5.076;2024-03-08T08:38:07;101226.13;;;6.05;59.90
64158;BME280;50449;51.528;5.076;2024-03-08T08:40:34;101225.09;;;6.06;59.81
64158;BME280;50449;51.528;5.076;2024-03-08T08:43:01;101222.41;;;6.06;59.68
64158;BME280;50449;51.528;5.076;2024-03-08T08:45:30;101222.41;;;6.06;59.97
64158;BME280;50449;51.528;5.076;2024-03-08T08:47:55;101222.22;;;6.08;59.52
64158;BME280;50449;51.528;5.076;2024-03-08T08:50:21;101220.34;;;6.09;59.43
64158;BME280;50449;51.528;5.076;2024-03-08T08:52:50;101226.53;;;6.09;60.52
64158;BME280;50449;51.528;5.076;2024-03-08T08:55:16;101226.53;;;6.09;59.96
64158;BME280;50449;51.528;5.076;2024-03-08T08:57:46;101208.59;;;6.10;59.40
64158;BME280;50449;51.528;5.076;2024-03-08T09:00:12;101205.72;;;6.11;59.00
64158;BME280;50449;51.528;5.076;2024-03-08T09:02:43;101197.47;;;6.13;59.10
64158;BME280;50449;51.528;5.076;2024-03-08T09:05:08;101202.63;;;6.14;59.62
64158;BME280;50449;51.528;5.076;2024-03-08T09:07:34;101186.34;;;6.16;59.88
64158;BME280;50449;51.528;5.076;2024-03-08T09:10:03;101186.97;;;6.18;60.05
64158;BME280;50449;51.528;5.076;2024-03-08T09:12:28;101183.88;;;6.21;59.74
64158;BME280;50449;51.528;5.076;2024-03-08T09:14:54;101187.19;;;6.23;61.55
64158;BME280;50449;51.528;5.076;2024-03-08T09:17:20;101186.16;;;6.24;60.23
64158;BME280;50449;51.528;5.076;2024-03-08T09:19:49;101182.47;;;6.25;60.35
64158;BME280;50449;51.528;5.076;2024-03-08T09:22:15;101176.69;;;6.28;61.14
64158;BME280;50449;51.528;5.076;2024-03-08T09:24:41;101170.28;;;6.29;61.35
64158;BME280;50449;51.528;5.076;2024-03-08T09:27:08;101165.53;;;6.31;60.96
64158;BME280;50449;51.528;5.076;2024-03-08T09:29:35;101164.09;;;6.35;60.16
64158;BME280;50449;51.528;5.076;2024-03-08T09:32:00;101151.28;;;6.37;60.16
64158;BME280;50449;51.528;5.076;2024-03-08T09:34:26;101143.88;;;6.39;59.80
64158;BME280;50449;51.528;5.076;2024-03-08T09:36:52;101148.00;;;6.42;59.47
64158;BME280;50449;51.528;5.076;2024-03-08T09:39:18;101139.94;;;6.42;59.32
64158;BME280;50449;51.528;5.076;2024-03-08T09:41:46;101132.72;;;6.42;59.18
64158;BME280;50449;51.528;5.076;2024-03-08T09:44:14;101121.78;;;6.44;58.54
64158;BME280;50449;51.528;5.076;2024-03-08T09:46:40;101113.72;;;6.44;58.80
64158;BME280;50449;51.528;5.076;2024-03-08T09:49:06;101107.13;;;6.46;58.75
64158;BME280;50449;51.528;5.076;2024-03-08T09:51:35;101100.72;;;6.47;58.73
64158;BME280;50449;51.528;5.076;2024-03-08T09:54:06;101100.31;;;6.50;58.57
64158;BME280;50449;51.528;5.076;2024-03-08T09:56:34;101094.09;;;6.50;58.77
64158;BME280;50449;51.528;5.076;2024-03-08T09:59:00;101093.91;;;6.52;58.40
64158;BME280;50449;51.528;5.076;2024-03-08T10:01:44;101086.69;;;6.52;59.41
64158;BME280;50449;51.528;5.076;2024-03-08T10:04:11;101071.19;;;6.54;59.15
64158;BME280;50449;51.528;5.076;2024-03-08T10:06:37;101069.34;;;6.55;58.34
64158;BME280;50449;51.528;5.076;2024-03-08T10:09:02;101063.56;;;6.58;57.89
64158;BME280;50449;51.528;5.076;2024-03-08T10:11:28;101067.91;;;6.59;59.34
64158;BME280;50449;51.528;5.076;2024-03-08T10:13:54;101053.66;;;6.58;59.02
64158;BME280;50449;51.528;5.076;2024-03-08T10:16:19;101047.06;;;6.61;58.59
64158;BME280;50449;51.528;5.076;2024-03-08T10:18:46;101052.00;;;6.64;58.28
64158;BME280;50449;51.528;5.076;2024-03-08T10:21:11;101037.94;;;6.68;58.29
64158;BME280;50449;51.528;5.076;2024-03-08T10:23:38;101036.47;;;6.72;58.00
64158;BME280;50449;51.528;5.076;2024-03-08T10:26:14;101031.72;;;6.75;58.83
64158;BME280;50449;51.528;5.076;2024-03-08T10:28:41;101019.75;;;6.77;58.43
64158;BME280;50449;51.528;5.076;2024-03-08T10:31:06;101029.03;;;6.81;57.71
64158;BME280;50449;51.528;5.076;2024-03-08T10:33:32;101024.28;;;6.83;58.92
64158;BME280;50449;51.528;5.076;2024-03-08T10:35:58;101022.81;;;6.87;58.22
64158;BME280;50449;51.528;5.076;2024-03-08T10:38:26;101025.09;;;6.90;58.02
64158;BME280;50449;51.528;5.076;2024-03-08T10:40:52;101010.63;;;6.91;58.92
64158;BME280;50449;51.528;5.076;2024-03-08T10:43:23;101004.19;;;6.92;57.87
64158;BME280;50449;51.528;5.076;2024-03-08T10:46:05;101002.13;;;6.94;57.07
64158;BME280;50449;51.528;5.076;2024-03-08T10:48:43;101001.31;;;7.01;57.75
64158;BME280;50449;51.528;5.076;2024-03-08T10:51:09;100989.13;;;6.98;59.56
64158;BME280;50449;51.528;5.076;2024-03-08T10:53:36;100990.56;;;7.01;58.90
64158;BME280;50449;51.528;5.076;2024-03-08T10:56:07;100988.06;;;7.06;58.89
64158;BME280;50449;51.528;5.076;2024-03-08T10:58:35;100979.78;;;7.07;59.15
64158;BME280;50449;51.528;5.076;2024-03-08T11:01:02;100978.34;;;7.05;59.30
64158;BME280;50449;51.528;5.076;2024-03-08T11:06:08;100970.69;;;7.08;59.28
64158;BME280;50449;51.528;5.076;2024-03-08T11:08:36;100969.19;;;7.12;58.76
64158;BME280;50449;51.528;5.076;2024-03-08T11:11:02;100970.44;;;7.17;59.35
64158;BME280;50449;51.528;5.076;2024-03-08T11:13:35;100959.47;;;7.18;60.58
64158;BME280;50449;51.528;5.076;2024-03-08T11:16:07;100963.19;;;7.17;60.60
64158;BME280;50449;51.528;5.076;2024-03-08T11:18:33;100950.38;;;7.19;60.16
64158;BME280;50449;51.528;5.076;2024-03-08T11:21:12;100944.56;;;7.22;60.83
64158;BME280;50449;51.528;5.076;2024-03-08T11:23:38;100948.69;;;7.25;60.22
64158;BME280;50449;51.528;5.076;2024-03-08T11:26:18;100943.91;;;7.27;60.52
64158;BME280;50449;51.528;5.076;2024-03-08T11:28:43;100935.03;;;7.26;60.17
64158;BME280;50449;51.528;5.076;2024-03-08T11:33:35;100932.34;;;7.26;60.88
64158;BME280;50449;51.528;5.076;2024-03-08T11:36:07;100944.13;;;7.25;61.62
64158;BME280;50449;51.528;5.076;2024-03-08T11:38:43;100932.56;;;7.25;61.66
64158;BME280;50449;51.528;5.076;2024-03-08T11:41:09;100939.38;;;7.27;61.04
64158;BME280;50449;51.528;5.076;2024-03-08T11:43:40;100934.41;;;7.31;59.96
64158;BME280;50449;51.528;5.076;2024-03-08T11:46:14;100931.28;;;7.34;60.40
64158;BME280;50449;51.528;5.076;2024-03-08T11:48:41;100919.47;;;7.35;60.02
64158;BME280;50449;51.528;5.076;2024-03-08T11:51:14;100920.91;;;7.37;60.11
64158;BME280;50449;51.528;5.076;2024-03-08T11:53:40;100921.72;;;7.38;60.81
64158;BME280;50449;51.528;5.076;2024-03-08T11:56:10;100912.63;;;7.39;61.07
64158;BME280;50449;51.528;5.076;2024-03-08T11:58:37;100904.78;;;7.37;61.48
64158;BME280;50449;51.528;5.076;2024-03-08T12:01:07;100899.41;;;7.37;61.14
64158;BME280;50449;51.528;5.076;2024-03-08T12:03:34;100902.25;;;7.43;61.04
64158;BME280;50449;51.528;5.076;2024-03-08T12:06:00;100899.97;;;7.46;61.08
64158;BME280;50449;51.528;5.076;2024-03-08T12:08:27;100901.81;;;7.46;61.37
64158;BME280;50449;51.528;5.076;2024-03-08T12:10:54;100901.81;;;7.46;61.19
64158;BME280;50449;51.528;5.076;2024-03-08T12:13:26;100911.91;;;7.50;60.92
64158;BME280;50449;51.528;5.076;2024-03-08T12:15:56;100895.38;;;7.53;61.14
64158;BME280;50449;51.528;5.076;2024-03-08T12:18:22;100889.16;;;7.53;61.35
64158;BME280;50449;51.528;5.076;2024-03-08T12:20:48;100880.88;;;7.54;61.41
64158;BME280;50449;51.528;5.076;2024-03-08T12:23:15;100874.69;;;7.54;61.52
64158;BME280;50449;51.528;5.076;2024-03-08T12:25:41;100870.34;;;7.53;61.53
64158;BME280;50449;51.528;5.076;2024-03-08T12:28:11;100873.19;;;7.58;61.40
64158;BME280;50449;51.528;5.076;2024-03-08T12:30:51;100867.97;;;7.63;61.68
64158;BME280;50449;51.528;5.076;2024-03-08T12:33:22;100850.81;;;7.64;61.53
64158;BME280;50449;51.528;5.076;2024-03-08T12:35:52;100864.03;;;7.66;61.39
64158;BME280;50449;51.528;5.076;2024-03-08T12:38:24;100856.56;;;7.68;61.47
64158;BME280;50449;51.528;5.076;2024-03-08T12:40:57;100848.75;;;7.66;61.49
64158;BME280;50449;51.528;5.076;2024-03-08T12:43:23;100843.28;;;7.73;61.21
64158;BME280;50449;51.528;5.076;2024-03-08T12:45:48;100842.25;;;7.74;61.79
64158;BME280;50449;51.528;5.076;2024-03-08T12:48:14;100843.69;;;7.76;61.27
64158;BME280;50449;51.528;5.076;2024-03-08T12:50:41;100843.22;;;7.79;61.09
64158;BME280;50449;51.528;5.076;2024-03-08T12:53:09;100833.91;;;7.82;61.54
64158;BME280;50449;51.528;5.076;2024-03-08T12:55:34;100825.38;;;7.85;61.72
64158;BME280;50449;51.528;5.076;2024-03-08T12:58:00;100829.50;;;7.88;61.40
64158;BME280;50449;51.528;5.076;2024-03-08T13:00:26;100824.94;;;7.88;61.80
64158;BME280;50449;51.528;5.076;2024-03-08T13:02:53;100817.25;;;7.92;61.37
64158;BME280;50449;51.528;5.076;2024-03-08T13:05:19;100812.25;;;7.95;61.65